Time;durP1;ratioP1;P1;durP2;ratioP2;P2;SDS_P1;SDS_P2;PMS_P1;PMS_P2;Temp;Humidity;BMP_temperature;BMP_pressure;BME280_temperature;BME280_humidity;BME280_pressure;Samples;Min_cycle;Max_cycle;Signal;HPM_P1;HPM_P2
2022/07/28 00:01:32;;;;;;;6.70;1.75;;;15.40;99.90;;;;;;4975525;28;20030;-70
2022/07/28 00:03:58;;;;;;;3.70;1.60;;;15.40;99.90;;;;;;4974198;28;20109;-66
2022/07/28 00:06:24;;;;;;;5.38;1.90;;;15.40;99.90;;;;;;4975360;28;20038;-67
2022/07/28 00:08:49;;;;;;;3.40;1.42;;;15.40;99.90;;;;;;4975759;28;20027;-68
2022/07/28 00:11:15;;;;;;;5.75;1.50;;;15.40;99.90;;;;;;4975719;28;20023;-69
2022/07/28 00:13:41;;;;;;;6.05;1.70;;;15.40;99.90;;;;;;4974271;28;20029;-66
2022/07/28 00:16:06;;;;;;;4.35;1.38;;;15.30;99.90;;;;;;4975578;28;20023;-67
2022/07/28 00:18:32;;;;;;;6.45;1.88;;;15.30;99.90;;;;;;4974091;28;20023;-68
2022/07/28 00:20:58;;;;;;;5.70;1.38;;;15.30;99.90;;;;;;4975477;28;20376;-67
2022/07/28 00:23:23;;;;;;;6.70;1.95;;;15.30;99.90;;;;;;4975831;28;20033;-68
2022/07/28 00:25:49;;;;;;;2.20;1.33;;;15.30;99.90;;;;;;4973993;28;20038;-68
2022/07/28 00:28:14;;;;;;;5.10;1.42;;;15.30;99.90;;;;;;4975452;28;20023;-67
2022/07/28 00:30:40;;;;;;;3.72;1.60;;;15.30;99.90;;;;;;4975588;28;20377;-67
2022/07/28 00:33:05;;;;;;;5.68;1.73;;;15.30;99.90;;;;;;4975019;28;20033;-67
2022/07/28 00:35:31;;;;;;;2.45;1.50;;;15.20;99.90;;;;;;4975134;28;20411;-67
2022/07/28 00:37:57;;;;;;;6.78;1.70;;;15.20;99.90;;;;;;4974932;28;20038;-71
2022/07/28 00:41:09;;;;;;;5.80;1.45;;;15.20;99.90;;;;;;4975347;28;20022;-67
2022/07/28 00:43:09;;;;;;;3.55;1.77;;;15.20;99.90;;;;;;4974616;28;20038;-67
2022/07/28 00:45:34;;;;;;;5.43;1.83;;;15.20;99.90;;;;;;4975082;28;20030;-68
2022/07/28 00:48:00;;;;;;;5.43;1.92;;;15.20;99.90;;;;;;4973067;28;20396;-67
2022/07/28 00:50:25;;;;;;;6.63;2.00;;;15.10;99.90;;;;;;4974876;28;20433;-67
2022/07/28 00:52:51;;;;;;;5.45;2.10;;;15.10;99.90;;;;;;4974656;28;20022;-67
2022/07/28 00:55:18;;;;;;;9.95;2.17;;;15.10;99.90;;;;;;4974932;28;20457;-69
2022/07/28 00:57:43;;;;;;;8.25;2.30;;;15.10;99.90;;;;;;4974498;28;20120;-66
2022/07/28 01:00:10;;;;;;;4.30;1.90;;;15.10;99.90;;;;;;4974671;28;20473;-68
2022/07/28 01:02:35;;;;;;;5.88;1.70;;;15.10;99.90;;;;;;4974368;28;20041;-70
2022/07/28 01:05:01;;;;;;;5.00;1.90;;;15.10;99.90;;;;;;4974666;28;20113;-67
2022/07/28 01:07:41;;;;;;;7.53;1.77;;;15.10;99.90;;;;;;4974932;28;20338;-66
2022/07/28 01:10:22;;;;;;;9.27;1.88;;;15.00;99.90;;;;;;4974792;28;20037;-67
2022/07/28 01:12:57;;;;;;;4.72;1.50;;;15.00;99.90;;;;;;4974379;28;20023;-67
2022/07/28 01:15:25;;;;;;;5.10;1.70;;;15.00;99.90;;;;;;4974606;28;20023;-69
2022/07/28 01:18:23;;;;;;;6.20;1.73;;;15.00;99.90;;;;;;4974580;28;20130;-66
2022/07/28 01:20:51;;;;;;;2.50;1.27;;;15.00;99.90;;;;;;4973775;28;20042;-66
2022/07/28 01:23:56;;;;;;;4.00;1.20;;;15.00;99.90;;;;;;4973770;28;20030;-66
2022/07/28 01:26:41;;;;;;;2.45;0.95;;;15.00;99.90;;;;;;4974138;28;20134;-67
2022/07/28 01:29:10;;;;;;;7.82;1.02;;;15.00;99.90;;;;;;4974039;28;20027;-67
2022/07/28 01:31:39;;;;;;;2.78;0.90;;;15.00;99.90;;;;;;4974472;28;20029;-66
2022/07/28 01:34:09;;;;;;;7.45;1.38;;;15.00;99.90;;;;;;4973607;28;20031;-67
2022/07/28 01:36:42;;;;;;;4.72;1.42;;;15.00;99.90;;;;;;4973930;28;20053;-67
2022/07/28 01:39:08;;;;;;;5.97;1.35;;;15.00;99.90;;;;;;4974220;28;20027;-67
2022/07/28 01:41:36;;;;;;;4.93;1.33;;;15.00;99.90;;;;;;4974229;28;20050;-67
2022/07/28 01:44:07;;;;;;;3.30;1.30;;;15.00;99.90;;;;;;4973429;28;20105;-66
2022/07/28 01:46:34;;;;;;;5.97;1.45;;;15.00;99.90;;;;;;4973787;28;20062;-68
2022/07/28 01:49:01;;;;;;;4.80;1.23;;;15.00;99.90;;;;;;4974027;28;20229;-69
2022/07/28 01:51:31;;;;;;;3.55;1.20;;;15.00;99.90;;;;;;4973999;28;20014;-66
2022/07/28 01:53:58;;;;;;;3.25;1.35;;;15.00;99.90;;;;;;4972594;28;20026;-67
2022/07/28 01:56:27;;;;;;;2.67;1.17;;;15.00;99.90;;;;;;4973896;28;20110;-68
2022/07/28 01:58:54;;;;;;;6.63;1.42;;;15.10;99.90;;;;;;4973772;28;20090;-67
2022/07/28 02:01:22;;;;;;;3.10;1.23;;;15.10;99.90;;;;;;4973689;28;20023;-67
2022/07/28 02:03:50;;;;;;;4.35;1.17;;;15.10;99.90;;;;;;4973263;28;20050;-72
2022/07/28 02:06:18;;;;;;;6.38;1.27;;;15.10;99.90;;;;;;4973784;28;20034;-67
2022/07/28 02:08:45;;;;;;;3.88;1.65;;;15.10;99.90;;;;;;4973643;28;20080;-67
2022/07/28 02:13:56;;;;;;;4.05;1.05;;;15.10;99.90;;;;;;4973909;28;20038;-67
2022/07/28 02:16:24;;;;;;;5.57;1.50;;;15.20;99.90;;;;;;4973693;28;20031;-67
2022/07/28 02:18:52;;;;;;;6.88;1.23;;;15.20;99.90;;;;;;4974902;28;20508;-67
2022/07/28 02:21:19;;;;;;;7.88;1.45;;;15.20;99.90;;;;;;4976189;28;20030;-67
2022/07/28 02:23:47;;;;;;;5.07;1.65;;;15.10;99.90;;;;;;4973861;28;20031;-68
2022/07/28 02:26:15;;;;;;;7.90;1.40;;;15.20;99.90;;;;;;4973051;28;20046;-68
2022/07/28 02:28:42;;;;;;;2.80;1.13;;;15.20;99.90;;;;;;4973487;28;20023;-68
2022/07/28 02:31:30;;;;;;;6.88;1.55;;;15.20;99.90;;;;;;4973586;28;20034;-68
2022/07/28 02:33:59;;;;;;;8.60;2.15;;;15.10;99.90;;;;;;4973480;28;20110;-67
2022/07/28 02:36:29;;;;;;;3.15;1.52;;;15.20;99.90;;;;;;4973468;28;20030;-68
2022/07/28 02:39:13;;;;;;;4.47;1.40;;;15.20;99.90;;;;;;4973481;28;20015;-66
2022/07/28 02:41:41;;;;;;;6.55;1.33;;;15.20;99.90;;;;;;4973430;28;20033;-67
2022/07/28 02:44:13;;;;;;;4.65;1.38;;;15.20;99.90;;;;;;4973614;28;20445;-67
2022/07/28 02:46:45;;;;;;;8.02;1.73;;;15.10;99.90;;;;;;4975991;28;20093;-67
2022/07/28 02:49:24;;;;;;;5.07;1.88;;;15.10;99.90;;;;;;4977204;28;20093;-67
2022/07/28 02:51:52;;;;;;;8.07;1.60;;;15.10;99.90;;;;;;4977301;28;20033;-69
2022/07/28 02:54:19;;;;;;;4.30;1.48;;;15.10;99.90;;;;;;4977117;28;20023;-66
2022/07/28 02:56:47;;;;;;;8.40;2.20;;;15.10;99.90;;;;;;4975864;28;20037;-66
2022/07/28 02:59:13;;;;;;;6.10;1.95;;;15.10;99.90;;;;;;4976851;28;20030;-69
2022/07/28 03:01:41;;;;;;;5.95;1.48;;;15.00;99.90;;;;;;4976910;28;20105;-71
2022/07/28 03:04:08;;;;;;;6.65;1.70;;;15.00;99.90;;;;;;4975489;28;20049;-69
2022/07/28 03:06:34;;;;;;;4.82;1.75;;;15.00;99.90;;;;;;4976799;28;20479;-71
2022/07/28 03:09:00;;;;;;;6.00;1.42;;;15.00;99.90;;;;;;4976681;28;20035;-66
2022/07/28 03:11:26;;;;;;;4.38;1.38;;;15.00;99.90;;;;;;4976417;28;20114;-68
2022/07/28 03:13:51;;;;;;;3.85;1.88;;;15.00;99.90;;;;;;4976658;28;20019;-69
2022/07/28 03:16:17;;;;;;;3.60;1.50;;;15.00;99.90;;;;;;4976581;28;20081;-67
2022/07/28 03:18:43;;;;;;;4.63;1.45;;;15.00;99.90;;;;;;4976675;28;20098;-67
2022/07/28 03:21:08;;;;;;;5.88;1.20;;;15.00;99.90;;;;;;4975320;28;20475;-68
2022/07/28 03:23:38;;;;;;;2.05;1.33;;;15.00;99.90;;;;;;4976725;28;20027;-67
2022/07/28 03:26:24;;;;;;;2.50;1.27;;;15.00;99.90;;;;;;4975881;28;20054;-70
2022/07/28 03:28:51;;;;;;;3.42;1.13;;;15.00;99.90;;;;;;4976518;28;20077;-67
2022/07/28 03:31:18;;;;;;;3.45;1.25;;;15.00;99.90;;;;;;4976296;28;20030;-68
2022/07/28 03:33:45;;;;;;;1.88;1.10;;;15.00;99.90;;;;;;4976045;28;20049;-67
2022/07/28 03:36:14;;;;;;;10.90;4.25;;;15.00;99.90;;;;;;4976477;28;20031;-67
2022/07/28 03:39:00;;;;;;;5.22;2.03;;;15.00;99.90;;;;;;4975737;28;20051;-68
2022/07/28 03:41:26;;;;;;;8.32;1.83;;;15.00;99.90;;;;;;4976316;28;20019;-67
2022/07/28 03:43:53;;;;;;;4.80;1.80;;;15.00;99.90;;;;;;4976154;28;20099;-71
2022/07/28 03:46:20;;;;;;;3.38;1.20;;;15.00;99.90;;;;;;4976004;28;20053;-68
2022/07/28 03:48:45;;;;;;;2.85;1.48;;;15.00;99.90;;;;;;4975996;28;20361;-67
2022/07/28 03:51:11;;;;;;;4.97;1.30;;;15.00;99.90;;;;;;4975972;28;20023;-67
2022/07/28 03:53:37;;;;;;;6.88;2.20;;;15.00;99.90;;;;;;4974712;28;20023;-69
2022/07/28 03:56:03;;;;;;;4.07;1.67;;;15.00;99.90;;;;;;4975559;28;20039;-67
2022/07/28 03:58:29;;;;;;;5.65;1.52;;;15.00;99.90;;;;;;4976077;28;20531;-69
2022/07/28 04:00:55;;;;;;;2.33;1.38;;;15.00;99.90;;;;;;4976243;28;20097;-68
2022/07/28 04:03:20;;;;;;;4.80;1.60;;;14.90;99.90;;;;;;4975942;28;20030;-69
2022/07/28 04:05:46;;;;;;;6.90;2.47;;;14.90;99.90;;;;;;4975393;28;20038;-67
2022/07/28 04:08:12;;;;;;;6.07;2.05;;;14.90;99.90;;;;;;4975730;28;20345;-67
2022/07/28 04:10:38;;;;;;;5.07;1.70;;;14.90;99.90;;;;;;4975871;28;20022;-68
2022/07/28 04:13:04;;;;;;;4.68;1.92;;;14.80;99.90;;;;;;4975989;28;20330;-67
2022/07/28 04:15:31;;;;;;;5.30;1.80;;;14.80;99.90;;;;;;4975728;28;20035;-67
2022/07/28 04:17:57;;;;;;;3.08;1.20;;;14.80;99.90;;;;;;4974136;28;20449;-68
2022/07/28 04:20:24;;;;;;;3.63;1.55;;;14.80;99.90;;;;;;4975755;28;20026;-67
2022/07/28 04:22:50;;;;;;;2.88;1.33;;;14.80;99.90;;;;;;4975608;28;20069;-68
2022/07/28 04:25:18;;;;;;;4.65;1.50;;;14.80;99.90;;;;;;4974086;28;20428;-69
2022/07/28 04:27:43;;;;;;;3.65;1.42;;;14.90;99.90;;;;;;4974983;28;20034;-67
2022/07/28 04:30:12;;;;;;;4.53;2.00;;;14.90;99.90;;;;;;4975115;28;20177;-66
2022/07/28 04:32:38;;;;;;;4.53;1.33;;;14.90;99.90;;;;;;4975111;28;20062;-67
2022/07/28 04:35:09;;;;;;;6.20;1.73;;;14.90;99.90;;;;;;4975377;28;20034;-66
2022/07/28 04:37:35;;;;;;;5.03;1.70;;;14.90;99.90;;;;;;4975295;28;20026;-67
2022/07/28 04:40:01;;;;;;;6.65;1.20;;;15.00;99.90;;;;;;4973557;28;20038;-67
2022/07/28 04:42:27;;;;;;;4.28;1.63;;;15.10;99.90;;;;;;4975242;28;20069;-67
2022/07/28 04:44:53;;;;;;;5.93;1.50;;;15.10;99.90;;;;;;4975328;28;20382;-67
2022/07/28 04:47:18;;;;;;;7.05;1.92;;;15.10;99.90;;;;;;4974879;28;20051;-67
2022/07/28 04:49:44;;;;;;;2.05;1.23;;;15.20;99.90;;;;;;4974943;28;20034;-67
2022/07/28 04:52:10;;;;;;;8.73;1.45;;;15.20;99.90;;;;;;4975044;28;20105;-67
2022/07/28 04:54:36;;;;;;;4.88;1.50;;;15.20;99.90;;;;;;4974980;28;20053;-67
2022/07/28 04:57:03;;;;;;;7.25;1.65;;;15.30;99.90;;;;;;4973186;28;20457;-65
2022/07/28 04:59:28;;;;;;;3.85;1.27;;;15.40;99.90;;;;;;4974774;28;20035;-68
2022/07/28 05:01:56;;;;;;;4.22;1.83;;;15.50;99.90;;;;;;4974933;28;20345;-67
2022/07/28 05:04:24;;;;;;;7.10;1.33;;;15.50;99.90;;;;;;4975097;28;20079;-67
2022/07/28 05:06:50;;;;;;;4.38;1.52;;;15.60;99.90;;;;;;4974964;28;20030;-67
2022/07/28 05:09:16;;;;;;;4.28;1.50;;;15.80;99.90;;;;;;4974270;28;20467;-66
2022/07/28 05:11:41;;;;;;;6.38;1.65;;;15.90;99.90;;;;;;4974881;28;20025;-67
2022/07/28 05:14:08;;;;;;;5.20;1.50;;;16.00;99.90;;;;;;4974441;28;20023;-68
2022/07/28 05:16:34;;;;;;;3.88;1.67;;;16.10;99.90;;;;;;4974583;28;20102;-69
2022/07/28 05:19:00;;;;;;;4.68;2.13;;;16.20;99.90;;;;;;4974539;28;20122;-69
2022/07/28 05:21:25;;;;;;;8.38;1.58;;;16.30;99.90;;;;;;4974681;28;20058;-70
2022/07/28 05:23:51;;;;;;;5.38;1.70;;;16.40;99.90;;;;;;4974364;28;20027;-70
2022/07/28 05:26:16;;;;;;;2.17;1.25;;;16.60;99.90;;;;;;4974713;28;20039;-66
2022/07/28 05:28:42;;;;;;;6.40;1.80;;;16.70;99.90;;;;;;4974776;28;20138;-67
2022/07/28 05:31:08;;;;;;;6.38;1.67;;;16.80;99.90;;;;;;4974544;28;20065;-68
2022/07/28 05:33:34;;;;;;;3.83;1.35;;;17.00;99.90;;;;;;4974476;28;20031;-68
2022/07/28 05:36:00;;;;;;;5.20;1.70;;;17.10;99.90;;;;;;4974657;28;20104;-67
2022/07/28 05:38:27;;;;;;;4.30;1.52;;;17.30;99.90;;;;;;4974472;28;20050;-69
2022/07/28 05:40:53;;;;;;;5.72;2.00;;;17.50;99.90;;;;;;4974252;28;20098;-68
2022/07/28 05:43:19;;;;;;;6.50;1.65;;;17.60;99.90;;;;;;4974437;28;20158;-71
2022/07/28 05:45:45;;;;;;;4.35;1.38;;;17.80;99.90;;;;;;4973957;28;20035;-67
2022/07/28 05:48:11;;;;;;;8.63;2.03;;;18.00;99.90;;;;;;4974352;28;20043;-69
2022/07/28 05:50:37;;;;;;;7.25;1.98;;;18.20;99.90;;;;;;4973911;28;20030;-67
2022/07/28 05:53:03;;;;;;;3.58;1.35;;;18.30;99.90;;;;;;4974149;28;20357;-69
2022/07/28 05:55:28;;;;;;;5.40;1.48;;;18.50;99.90;;;;;;4973823;28;20101;-71
2022/07/28 05:57:54;;;;;;;5.20;1.70;;;18.70;99.70;;;;;;4974084;28;20022;-69
2022/07/28 06:00:21;;;;;;;4.57;1.17;;;18.80;99.40;;;;;;4974084;28;20026;-68
2022/07/28 06:02:48;;;;;;;6.45;1.60;;;19.00;98.90;;;;;;4973944;28;20033;-70
2022/07/28 06:05:16;;;;;;;6.80;1.42;;;19.30;98.60;;;;;;4974016;28;20035;-67
2022/07/28 06:07:42;;;;;;;5.10;1.50;;;19.70;97.70;;;;;;4973735;28;20026;-68
2022/07/28 06:10:08;;;;;;;2.17;1.33;;;20.00;97.10;;;;;;4974381;28;20027;-69
2022/07/28 06:12:44;;;;;;;4.53;1.52;;;20.30;96.60;;;;;;4973821;28;20030;-65
2022/07/28 06:15:22;;;;;;;5.32;1.60;;;20.40;95.90;;;;;;4973849;28;20101;-67
2022/07/28 06:17:51;;;;;;;5.35;1.65;;;20.30;95.70;;;;;;4972737;28;20608;-67
2022/07/28 06:20:18;;;;;;;4.22;1.10;;;20.20;96.00;;;;;;4973564;28;20023;-67
2022/07/28 06:22:45;;;;;;;5.78;1.38;;;20.20;94.70;;;;;;4973717;28;20022;-71
2022/07/28 06:25:22;;;;;;;3.92;1.10;;;20.10;94.50;;;;;;4973164;28;20046;-65
2022/07/28 06:27:49;;;;;;;5.28;1.23;;;19.90;94.20;;;;;;4954373;29;20023;-71
2022/07/28 06:30:16;;;;;;;3.58;1.48;;;19.80;94.20;;;;;;4954496;28;20122;-69
2022/07/28 06:32:41;;;;;;;3.75;1.00;;;19.80;94.40;;;;;;4985303;28;20062;-70
2022/07/28 06:35:08;;;;;;;4.90;1.10;;;20.00;93.70;;;;;;4954589;28;20077;-70
2022/07/28 06:37:34;;;;;;;4.35;1.08;;;20.40;93.30;;;;;;4954402;28;20038;-68
2022/07/28 06:40:00;;;;;;;3.40;1.25;;;20.90;92.60;;;;;;4954143;28;20131;-67
2022/07/28 06:42:25;;;;;;;5.20;1.02;;;21.40;92.10;;;;;;4954119;28;20466;-68
2022/07/28 06:44:51;;;;;;;3.38;1.20;;;22.10;91.10;;;;;;4953935;28;20035;-68
2022/07/28 06:47:17;;;;;;;5.35;1.23;;;22.60;90.30;;;;;;4954461;28;20051;-70
2022/07/28 06:49:43;;;;;;;4.80;1.30;;;23.20;88.80;;;;;;4954364;28;20074;-69
2022/07/28 06:52:09;;;;;;;4.20;1.65;;;23.60;86.70;;;;;;4954435;28;20027;-66
2022/07/28 06:54:35;;;;;;;3.38;1.20;;;23.80;85.70;;;;;;4968091;28;20030;-66
2022/07/28 06:57:01;;;;;;;2.95;1.23;;;24.00;85.30;;;;;;4973264;28;20023;-69
2022/07/28 06:59:26;;;;;;;4.57;1.13;;;24.20;84.30;;;;;;4973355;28;20023;-69
2022/07/28 07:01:52;;;;;;;2.10;1.05;;;24.50;83.20;;;;;;4973100;28;20035;-68
2022/07/28 07:04:17;;;;;;;3.17;1.10;;;24.90;82.00;;;;;;4973347;28;20026;-71
2022/07/28 07:06:43;;;;;;;5.38;1.30;;;25.30;80.70;;;;;;4972610;28;20384;-68
2022/07/28 07:09:09;;;;;;;3.90;1.60;;;25.60;80.40;;;;;;4972598;28;20029;-69
2022/07/28 07:11:37;;;;;;;3.88;1.30;;;25.80;79.50;;;;;;4972833;28;20022;-70
2022/07/28 07:14:03;;;;;;;4.60;1.50;;;26.20;78.30;;;;;;4972829;28;20042;-70
2022/07/28 07:16:29;;;;;;;8.00;1.58;;;26.60;76.50;;;;;;4973439;28;20116;-70
2022/07/28 07:18:54;;;;;;;5.60;1.30;;;26.70;76.40;;;;;;4973158;28;20023;-71
2022/07/28 07:21:20;;;;;;;3.90;1.35;;;27.00;76.00;;;;;;4972078;28;20015;-67
2022/07/28 07:23:46;;;;;;;4.38;1.35;;;27.20;74.60;;;;;;4972967;28;20476;-66
2022/07/28 07:26:13;;;;;;;5.15;1.88;;;27.20;73.90;;;;;;4973207;28;20057;-67
2022/07/28 07:28:40;;;;;;;3.58;1.13;;;27.10;73.80;;;;;;4971608;28;20098;-67
2022/07/28 07:31:06;;;;;;;4.82;1.70;;;27.10;73.30;;;;;;4973422;28;20019;-66
2022/07/28 07:33:31;;;;;;;2.67;0.90;;;26.70;73.80;;;;;;4976291;28;20019;-67
2022/07/28 07:35:57;;;;;;;3.72;1.40;;;26.40;74.20;;;;;;4974477;28;20038;-68
2022/07/28 07:38:22;;;;;;;1.58;1.00;;;26.10;74.60;;;;;;4976844;28;20030;-66
2022/07/28 07:40:50;;;;;;;5.15;1.52;;;25.80;74.20;;;;;;4976088;28;20097;-67
2022/07/28 07:43:16;;;;;;;2.92;1.10;;;25.40;75.20;;;;;;4975146;28;20109;-66
2022/07/28 07:45:42;;;;;;;5.60;1.60;;;25.20;76.00;;;;;;4976458;28;20046;-68
2022/07/28 07:48:07;;;;;;;3.88;1.00;;;24.90;76.20;;;;;;4978181;28;20549;-67
2022/07/28 07:50:33;;;;;;;6.43;1.70;;;24.80;76.70;;;;;;4990433;28;20092;-67
2022/07/28 07:52:59;;;;;;;4.07;1.27;;;24.60;77.10;;;;;;4992757;28;20014;-68
2022/07/28 07:55:25;;;;;;;6.40;1.67;;;24.30;77.40;;;;;;4990729;28;20022;-67
2022/07/28 07:57:51;;;;;;;5.07;1.52;;;24.20;77.60;;;;;;4992486;28;20018;-67
2022/07/28 08:00:17;;;;;;;6.90;1.33;;;24.10;77.20;;;;;;4989156;28;20033;-72
2022/07/28 08:02:43;;;;;;;4.95;1.02;;;24.00;76.60;;;;;;4978713;28;20054;-70
2022/07/28 08:05:09;;;;;;;7.15;1.38;;;24.00;76.20;;;;;;4981032;28;20174;-67
2022/07/28 08:07:35;;;;;;;4.88;1.50;;;23.90;76.60;;;;;;4987172;28;20105;-70
2022/07/28 08:10:01;;;;;;;4.00;1.15;;;24.00;76.70;;;;;;4989760;28;20105;-69
2022/07/28 08:12:26;;;;;;;7.75;1.50;;;24.20;76.70;;;;;;4991410;28;20486;-71
2022/07/28 08:14:53;;;;;;;4.72;1.52;;;24.50;76.70;;;;;;4989799;28;20105;-70
2022/07/28 08:17:19;;;;;;;4.00;1.42;;;24.70;75.90;;;;;;4992247;28;20109;-69
2022/07/28 08:19:45;;;;;;;2.35;1.00;;;25.10;74.90;;;;;;4990666;28;20021;-67
2022/07/28 08:22:11;;;;;;;3.78;1.30;;;25.50;73.70;;;;;;4988195;28;20026;-68
2022/07/28 08:24:36;;;;;;;2.85;0.80;;;26.00;72.10;;;;;;4989586;28;20031;-67
2022/07/28 08:27:02;;;;;;;1.67;0.90;;;26.30;71.00;;;;;;4987275;28;20035;-67
2022/07/28 08:29:28;;;;;;;2.95;0.80;;;27.00;70.20;;;;;;4973609;28;20022;-71
2022/07/28 08:31:53;;;;;;;4.78;1.38;;;27.70;69.20;;;;;;4975351;28;20054;-71
2022/07/28 08:34:19;;;;;;;3.88;1.10;;;28.40;68.20;;;;;;4974181;28;20027;-69
2022/07/28 08:36:44;;;;;;;3.60;1.20;;;28.80;66.50;;;;;;4975467;28;20050;-68
2022/07/28 08:39:10;;;;;;;3.38;1.35;;;29.10;66.20;;;;;;4974230;28;20419;-66
2022/07/28 08:41:44;;;;;;;2.15;0.98;;;29.50;66.20;;;;;;4974663;28;20397;-67
2022/07/28 08:44:16;;;;;;;5.32;1.00;;;29.80;65.10;;;;;;4974377;28;20461;-68
2022/07/28 08:46:43;;;;;;;5.05;0.82;;;30.00;63.60;;;;;;4974904;28;20041;-66
2022/07/28 08:49:09;;;;;;;4.40;0.80;;;29.80;63.00;;;;;;4974906;28;20113;-68
2022/07/28 08:51:37;;;;;;;2.28;0.70;;;29.60;63.60;;;;;;4974185;28;20026;-68
2022/07/28 08:54:04;;;;;;;2.05;0.80;;;29.50;62.40;;;;;;4974023;28;20046;-67
2022/07/28 08:56:30;;;;;;;2.97;1.10;;;29.30;62.60;;;;;;4974780;28;20046;-67
2022/07/28 08:58:57;;;;;;;4.10;1.05;;;28.90;63.00;;;;;;4974768;28;20022;-68
2022/07/28 09:01:23;;;;;;;2.10;0.90;;;28.60;64.40;;;;;;4973584;28;20116;-67
2022/07/28 09:03:50;;;;;;;3.00;1.10;;;28.30;64.50;;;;;;4973626;28;20030;-67
2022/07/28 09:06:19;;;;;;;3.20;0.95;;;28.10;65.80;;;;;;4973855;28;20723;-69
2022/07/28 09:08:45;;;;;;;2.47;0.90;;;28.00;65.00;;;;;;4973898;28;20086;-67
2022/07/28 09:11:11;;;;;;;2.90;1.00;;;28.00;65.30;;;;;;4974791;28;20019;-67
2022/07/28 09:13:36;;;;;;;3.13;1.20;;;28.20;64.80;;;;;;4974428;28;20047;-67
2022/07/28 09:16:02;;;;;;;3.67;0.98;;;28.20;65.20;;;;;;4972810;28;20129;-66
2022/07/28 09:18:28;;;;;;;4.18;0.98;;;28.20;64.20;;;;;;4974685;28;20042;-67
2022/07/28 09:20:54;;;;;;;2.33;1.17;;;28.10;64.20;;;;;;4974621;28;20027;-71
2022/07/28 09:23:19;;;;;;;3.40;1.05;;;28.00;63.80;;;;;;4974503;28;20074;-68
2022/07/28 09:25:46;;;;;;;3.42;1.17;;;28.10;63.80;;;;;;4974465;28;20065;-68
2022/07/28 09:28:13;;;;;;;2.95;1.40;;;28.50;64.00;;;;;;4974403;28;20233;-67
2022/07/28 09:30:44;;;;;;;1.83;0.98;;;29.10;63.00;;;;;;4974104;28;20465;-66
2022/07/28 09:33:20;;;;;;;2.22;1.20;;;29.50;62.10;;;;;;4971846;28;20027;-66
2022/07/28 09:35:53;;;;;;;4.85;1.40;;;30.10;61.00;;;;;;4974480;28;20026;-67
2022/07/28 09:38:21;;;;;;;2.10;0.95;;;30.50;60.80;;;;;;4974462;28;20516;-68
2022/07/28 09:41:02;;;;;;;5.18;1.15;;;30.60;60.70;;;;;;4974207;28;20106;-67
2022/07/28 09:43:36;;;;;;;7.07;1.20;;;30.60;60.10;;;;;;4974070;28;20033;-68
2022/07/28 09:46:07;;;;;;;2.05;0.88;;;30.60;60.60;;;;;;4973568;28;20026;-71
2022/07/28 09:48:33;;;;;;;3.78;1.23;;;30.80;60.00;;;;;;4972790;28;20093;-68
2022/07/28 09:51:11;;;;;;;4.38;0.95;;;30.70;59.60;;;;;;4973618;28;20027;-67
2022/07/28 09:53:37;;;;;;;4.03;0.80;;;30.50;58.90;;;;;;4973758;28;20476;-71
2022/07/28 09:56:02;;;;;;;2.72;0.90;;;30.40;58.90;;;;;;4972414;28;20027;-67
2022/07/28 09:58:29;;;;;;;3.65;1.13;;;29.90;59.20;;;;;;4970735;28;20512;-67
2022/07/28 10:01:02;;;;;;;5.47;1.10;;;29.50;60.40;;;;;;4973965;28;20113;-67
2022/07/28 10:03:28;;;;;;;3.92;0.95;;;29.40;61.50;;;;;;4973909;28;20030;-67
2022/07/28 10:05:54;;;;;;;1.30;0.80;;;29.50;61.20;;;;;;4973286;28;20039;-67
2022/07/28 10:08:42;;;;;;;2.80;0.90;;;29.70;61.00;;;;;;4971814;28;20327;-67
2022/07/28 10:11:09;;;;;;;4.15;1.30;;;30.10;60.20;;;;;;4973868;28;20054;-67
2022/07/28 10:13:36;;;;;;;3.00;0.90;;;30.40;60.00;;;;;;4972164;28;20034;-67
2022/07/28 10:16:11;;;;;;;3.65;1.00;;;30.50;59.60;;;;;;4971633;28;20659;-69
2022/07/28 10:18:39;;;;;;;7.20;1.13;;;30.90;59.10;;;;;;4973128;28;20023;-66
2022/07/28 10:21:12;;;;;;;3.55;1.00;;;31.30;58.60;;;;;;4973968;28;20090;-67
2022/07/28 10:23:41;;;;;;;3.08;0.82;;;31.30;59.00;;;;;;4973741;28;20015;-67
2022/07/28 10:26:09;;;;;;;4.22;1.10;;;31.50;59.10;;;;;;4973571;28;20130;-67
2022/07/28 10:28:44;;;;;;;4.82;1.00;;;31.90;58.10;;;;;;4973637;28;20109;-68
2022/07/28 10:31:13;;;;;;;1.48;1.00;;;32.50;57.80;;;;;;4973331;28;20023;-69
2022/07/28 10:33:45;;;;;;;3.92;1.10;;;32.80;57.50;;;;;;4973691;28;20023;-66
2022/07/28 10:36:13;;;;;;;1.52;1.00;;;32.60;57.60;;;;;;4973526;28;20030;-67
2022/07/28 10:38:39;;;;;;;2.58;0.80;;;32.30;57.30;;;;;;4973558;28;20026;-66
2022/07/28 10:41:07;;;;;;;6.05;1.02;;;32.10;57.20;;;;;;4972730;28;20110;-68
2022/07/28 10:43:34;;;;;;;3.20;1.20;;;31.70;57.70;;;;;;4972303;28;20026;-69
2022/07/28 10:46:00;;;;;;;3.88;0.80;;;31.80;57.60;;;;;;4972392;28;20043;-68
2022/07/28 10:48:26;;;;;;;3.15;1.08;;;32.10;57.10;;;;;;4971767;28;20493;-70
2022/07/28 10:50:56;;;;;;;4.38;1.30;;;32.00;57.60;;;;;;4971965;28;20034;-69
2022/07/28 10:53:48;;;;;;;3.35;1.27;;;31.90;57.20;;;;;;4973015;28;20031;-67
2022/07/28 10:56:22;;;;;;;4.53;1.00;;;31.60;57.20;;;;;;4973399;28;20027;-67
2022/07/28 10:59:12;;;;;;;4.10;1.15;;;30.90;57.60;;;;;;4972204;28;20058;-68
2022/07/28 11:01:39;;;;;;;2.17;1.10;;;30.20;58.60;;;;;;4972999;28;20070;-67
2022/07/28 11:04:06;;;;;;;3.80;0.98;;;29.70;59.00;;;;;;4972932;28;20034;-67
2022/07/28 11:06:38;;;;;;;5.38;1.10;;;29.50;59.00;;;;;;4973470;28;20464;-67
2022/07/28 11:09:16;;;;;;;7.15;1.20;;;29.40;59.40;;;;;;4977103;28;20027;-67
2022/07/28 11:11:45;;;;;;;3.58;1.33;;;30.00;58.70;;;;;;4976877;28;20031;-67
2022/07/28 11:14:32;;;;;;;3.72;0.90;;;30.60;57.20;;;;;;4976688;28;20023;-67
2022/07/28 11:17:04;;;;;;;2.90;0.95;;;31.00;56.90;;;;;;4976807;28;20019;-67
2022/07/28 11:19:29;;;;;;;;;;;31.60;57.00;;;;;;4977084;28;20029;-67
2022/07/28 11:22:13;;;;;;;2.75;1.15;;;32.40;56.00;;;;;;4976964;28;19902;-68
2022/07/28 11:25:03;;;;;;;2.83;0.68;;;33.10;54.90;;;;;;4976804;28;20095;-67
2022/07/28 11:27:50;;;;;;;3.58;0.80;;;33.20;54.40;;;;;;4976670;28;21188;-70
2022/07/28 11:30:24;;;;;;;4.20;0.82;;;33.20;54.20;;;;;;4976853;28;20399;-70
2022/07/28 11:32:49;;;;;;;3.33;0.82;;;32.40;54.40;;;;;;4976034;28;20026;-68
2022/07/28 11:35:17;;;;;;;2.78;1.10;;;31.90;54.90;;;;;;4976918;28;20038;-68
2022/07/28 11:38:01;;;;;;;2.67;0.90;;;31.40;55.50;;;;;;4972033;28;20445;-68
2022/07/28 11:40:37;;;;;;;4.00;1.40;;;31.20;56.40;;;;;;4974792;28;20117;-67
2022/07/28 11:43:21;;;;;;;1.55;0.85;;;31.30;55.70;;;;;;4976124;28;20039;-67
2022/07/28 11:45:48;;;;;;;4.53;1.00;;;31.50;54.80;;;;;;4975718;28;20039;-67
2022/07/28 11:48:21;;;;;;;1.77;0.90;;;31.70;55.50;;;;;;4975196;28;20074;-69
2022/07/28 11:51:02;;;;;;;1.75;1.20;;;32.00;55.10;;;;;;4976313;28;20054;-69
2022/07/28 11:54:02;;;;;;;4.18;1.00;;;32.60;54.80;;;;;;4975061;28;20473;-67
2022/07/28 11:56:31;;;;;;;2.03;0.88;;;33.20;54.60;;;;;;4972357;28;20043;-67
2022/07/28 11:59:00;;;;;;;2.60;1.20;;;33.30;54.70;;;;;;4975089;28;20022;-67
2022/07/28 12:01:26;;;;;;;1.70;0.90;;;33.30;54.70;;;;;;4975164;28;20019;-70
2022/07/28 12:03:53;;;;;;;4.25;1.42;;;33.00;54.20;;;;;;4976214;28;20023;-67
2022/07/28 12:06:19;;;;;;;3.38;0.90;;;32.70;54.70;;;;;;4974822;28;20022;-67
2022/07/28 12:09:01;;;;;;;2.88;1.08;;;33.10;54.90;;;;;;4976118;28;20508;-67
2022/07/28 12:11:31;;;;;;;2.25;1.17;;;33.70;54.20;;;;;;4976178;28;20026;-70
2022/07/28 12:14:09;;;;;;;2.47;1.48;;;33.80;53.40;;;;;;4976114;28;20030;-66
2022/07/28 12:16:37;;;;;;;1.90;1.00;;;33.40;54.00;;;;;;4970326;28;20030;-65
2022/07/28 12:19:04;;;;;;;1.88;1.02;;;32.80;54.60;;;;;;4973947;28;20019;-66
2022/07/28 12:21:44;;;;;;;3.67;0.90;;;32.50;54.70;;;;;;4974547;28;20065;-68
2022/07/28 12:24:12;;;;;;;2.72;0.75;;;32.70;54.20;;;;;;4976112;28;20050;-69
2022/07/28 12:26:39;;;;;;;2.42;0.90;;;32.90;54.40;;;;;;4975643;28;20507;-67
2022/07/28 12:29:05;;;;;;;4.38;1.30;;;33.30;53.50;;;;;;4975284;28;20027;-66
2022/07/28 12:31:32;;;;;;;4.25;0.90;;;33.60;53.00;;;;;;4975515;28;20018;-66
2022/07/28 12:34:05;;;;;;;2.65;1.10;;;33.70;53.00;;;;;;4975138;28;20101;-68
2022/07/28 12:36:33;;;;;;;5.55;1.08;;;33.80;53.00;;;;;;4975354;28;20027;-67
2022/07/28 12:39:00;;;;;;;2.88;1.00;;;33.60;52.70;;;;;;4972893;28;20030;-67
2022/07/28 12:41:32;;;;;;;2.13;0.90;;;32.90;52.80;;;;;;4974921;28;20025;-66
2022/07/28 12:43:59;;;;;;;1.75;0.77;;;32.30;53.60;;;;;;4975574;28;20026;-67
2022/07/28 12:46:27;;;;;;;4.22;1.27;;;32.20;53.40;;;;;;4974867;28;20042;-69
2022/07/28 12:48:55;;;;;;;3.60;0.73;;;32.00;53.30;;;;;;4974958;28;20050;-69
2022/07/28 12:51:35;;;;;;;3.97;0.95;;;31.70;53.90;;;;;;4975342;28;20062;-68
2022/07/28 12:54:02;;;;;;;1.25;0.88;;;31.60;54.70;;;;;;4975380;28;20467;-70
2022/07/28 12:56:28;;;;;;;1.98;0.88;;;31.40;54.50;;;;;;4975121;28;20365;-68
2022/07/28 12:59:07;;;;;;;1.60;0.68;;;31.30;55.10;;;;;;4973461;28;20037;-67